createdAt,value
2022-10-13T00:01:09.980Z,69.56
2022-10-13T00:03:40.056Z,69.61
2022-10-13T00:06:09.553Z,69.90
2022-10-13T00:08:39.039Z,69.79
2022-10-13T00:11:12.603Z,69.70
2022-10-13T00:13:41.230Z,69.61
2022-10-13T00:16:14.311Z,70.47
2022-10-13T00:18:44.362Z,69.85
2022-10-13T00:21:14.620Z,69.79
2022-10-13T00:23:42.673Z,70.09
2022-10-13T00:26:12.365Z,69.91
2022-10-13T00:28:40.977Z,69.73
2022-10-13T00:31:19.219Z,70.01
2022-10-13T00:33:49.268Z,69.72
2022-10-13T00:36:18.645Z,70.44
2022-10-13T00:38:46.778Z,70.49
2022-10-13T00:41:14.909Z,70.12
2022-10-13T00:43:55.639Z,70.50
2022-10-13T00:46:24.724Z,70.74
2022-10-13T00:49:01.867Z,71.32
2022-10-13T00:51:33.521Z,71.28
2022-10-13T00:54:04.490Z,72.40
2022-10-13T00:56:32.993Z,70.41
2022-10-13T00:59:02.410Z,71.15
2022-10-13T01:01:30.593Z,71.04
2022-10-13T01:03:59.817Z,71.17
2022-10-13T01:06:28.792Z,70.56
2022-10-13T01:08:56.643Z,70.83
2022-10-13T01:11:44.824Z,72.19
2022-10-13T01:14:24.189Z,70.96
2022-10-13T01:17:03.496Z,71.73
2022-10-13T01:20:02.062Z,71.70
2022-10-13T01:22:47.127Z,71.21
2022-10-13T01:25:30.110Z,71.61
2022-10-13T01:28:19.337Z,72.09
2022-10-13T01:30:52.195Z,71.09
2022-10-13T01:33:31.528Z,71.66
2022-10-13T01:36:12.799Z,71.95
2022-10-13T01:38:47.780Z,71.92
2022-10-13T01:41:21.891Z,72.31
2022-10-13T01:43:54.856Z,71.99
2022-10-13T01:46:27.371Z,72.36
2022-10-13T01:48:57.981Z,71.70
2022-10-13T01:51:28.073Z,72.63
2022-10-13T01:53:56.121Z,72.74
2022-10-13T01:56:24.027Z,71.93
2022-10-13T01:58:54.560Z,72.57
2022-10-13T02:01:37.749Z,72.14
2022-10-13T02:04:18.992Z,72.50
2022-10-13T02:06:53.452Z,72.45
2022-10-13T02:09:27.861Z,72.47
2022-10-13T02:12:00.735Z,73.03
2022-10-13T02:14:37.460Z,71.87
2022-10-13T02:17:07.101Z,72.14
2022-10-13T02:19:38.698Z,72.61
2022-10-13T02:22:08.007Z,72.41
2022-10-13T02:24:36.039Z,71.91
2022-10-13T02:27:07.496Z,72.46
2022-10-13T02:29:35.527Z,72.14
2022-10-13T02:32:03.511Z,71.97
2022-10-13T02:34:32.755Z,72.18
2022-10-13T02:37:00.584Z,72.05
2022-10-13T02:39:28.420Z,72.61
2022-10-13T02:41:56.251Z,72.46
2022-10-13T02:44:24.876Z,72.29
2022-10-13T02:46:52.693Z,72.53
2022-10-13T02:49:20.555Z,73.15
2022-10-13T02:51:49.745Z,72.68
2022-10-13T02:54:17.803Z,73.08
2022-10-13T02:56:45.741Z,73.32
2022-10-13T02:59:13.662Z,72.76
2022-10-13T03:01:42.272Z,72.66
2022-10-13T03:04:10.253Z,73.45
2022-10-13T03:06:38.486Z,73.14
2022-10-13T03:09:08.223Z,73.53
2022-10-13T03:11:36.548Z,73.78
2022-10-13T03:14:04.394Z,73.86
2022-10-13T03:16:32.287Z,73.74
2022-10-13T03:19:00.173Z,73.75
2022-10-13T03:21:28.263Z,73.58
2022-10-13T03:23:56.136Z,74.10
2022-10-13T03:26:25.369Z,73.62
2022-10-13T03:28:53.602Z,73.91
2022-10-13T03:31:21.484Z,73.91
2022-10-13T03:33:49.295Z,73.80
2022-10-13T03:36:17.132Z,74.11
2022-10-13T03:38:47.525Z,73.93
2022-10-13T03:41:17.275Z,73.58
2022-10-13T03:43:52.032Z,73.88
2022-10-13T03:46:20.104Z,74.19
2022-10-13T03:48:48.804Z,74.58
2022-10-13T03:51:18.307Z,74.37
2022-10-13T03:53:46.563Z,74.90
2022-10-13T03:56:16.266Z,74.47
2022-10-13T03:58:54.529Z,74.12
2022-10-13T04:01:23.669Z,73.85
2022-10-13T04:03:52.851Z,73.79
2022-10-13T04:06:20.781Z,73.79
2022-10-13T04:08:49.439Z,73.60
2022-10-13T04:11:17.926Z,73.42
2022-10-13T04:13:53.540Z,73.35
2022-10-13T04:16:23.476Z,73.44
2022-10-13T04:18:53.965Z,73.62
2022-10-13T04:21:22.786Z,73.54
2022-10-13T04:23:50.659Z,73.68
2022-10-13T04:26:21.930Z,73.52
2022-10-13T04:28:52.713Z,73.49
2022-10-13T04:31:22.028Z,73.60
2022-10-13T04:33:50.420Z,73.57
2022-10-13T04:36:19.125Z,73.49
2022-10-13T04:38:49.751Z,73.46
2022-10-13T04:41:19.618Z,73.60
2022-10-13T04:43:49.481Z,73.84
2022-10-13T04:46:20.463Z,73.97
2022-10-13T04:48:50.338Z,74.43
2022-10-13T04:51:22.768Z,73.79
2022-10-13T04:53:54.684Z,74.18
2022-10-13T04:56:22.621Z,73.75
2022-10-13T04:58:50.930Z,73.49
2022-10-13T05:01:22.709Z,73.66
2022-10-13T05:03:52.461Z,73.74
2022-10-13T05:06:22.944Z,73.43
2022-10-13T05:08:53.738Z,73.18
2022-10-13T05:11:22.014Z,73.33
2022-10-13T05:13:50.315Z,73.26
2022-10-13T05:16:21.092Z,73.13
2022-10-13T05:18:49.870Z,73.48
2022-10-13T05:21:19.379Z,73.58
2022-10-13T05:23:47.786Z,73.41
2022-10-13T05:26:17.635Z,73.44
2022-10-13T05:28:46.356Z,73.34
2022-10-13T05:31:16.570Z,73.61
2022-10-13T05:33:46.966Z,73.39
2022-10-13T05:36:23.748Z,73.46
2022-10-13T05:38:53.119Z,73.40
2022-10-13T05:41:22.389Z,73.44
2022-10-13T05:43:58.977Z,73.47
2022-10-13T05:46:27.286Z,73.53
2022-10-13T05:48:56.604Z,73.72
2022-10-13T05:51:26.928Z,73.55
2022-10-13T05:54:04.848Z,73.20
2022-10-13T05:56:36.749Z,72.68
2022-10-13T05:59:07.778Z,72.58
2022-10-13T06:01:39.057Z,72.37
2022-10-13T06:04:12.191Z,72.57
2022-10-13T06:06:41.003Z,72.18
2022-10-13T06:09:09.051Z,72.21
2022-10-13T06:11:36.952Z,72.24
2022-10-13T06:14:04.934Z,71.55
2022-10-13T06:16:32.946Z,71.48
2022-10-13T06:19:00.774Z,71.52
2022-10-13T06:21:30.009Z,71.57
2022-10-13T06:23:57.881Z,72.13
2022-10-13T06:26:25.726Z,71.88
2022-10-13T06:28:59.135Z,72.19
2022-10-13T06:31:28.318Z,71.84
2022-10-13T06:33:56.264Z,72.11
2022-10-13T06:36:24.086Z,71.79
2022-10-13T06:38:54.243Z,72.29
2022-10-13T06:41:22.703Z,71.92
2022-10-13T06:43:50.542Z,72.32
2022-10-13T06:46:18.442Z,71.81
2022-10-13T06:48:46.259Z,71.49
2022-10-13T06:51:14.121Z,72.04
2022-10-13T06:53:41.963Z,72.17
2022-10-13T06:56:11.487Z,71.81
2022-10-13T06:58:40.560Z,71.67
2022-10-13T07:01:09.275Z,70.47
2022-10-13T07:03:37.219Z,71.01
2022-10-13T07:06:07.043Z,71.39
2022-10-13T07:08:35.721Z,71.97
2022-10-13T07:11:12.963Z,72.24
2022-10-13T07:13:47.019Z,71.90
2022-10-13T07:16:16.913Z,71.57
2022-10-13T07:18:45.074Z,71.62
2022-10-13T07:21:12.866Z,70.94
2022-10-13T07:23:40.722Z,70.91
2022-10-13T07:26:09.508Z,70.10
2022-10-13T07:28:37.392Z,70.44
2022-10-13T07:31:11.795Z,70.17
2022-10-13T07:33:39.727Z,69.64
2022-10-13T07:36:08.340Z,69.81
2022-10-13T07:38:36.510Z,70.66
2022-10-13T07:41:05.541Z,71.03
2022-10-13T07:43:33.436Z,70.79
2022-10-13T07:46:04.655Z,71.45
2022-10-13T07:48:35.017Z,71.23
2022-10-13T07:51:07.235Z,70.62
2022-10-13T07:53:35.398Z,70.94
2022-10-13T07:56:04.203Z,69.75
2022-10-13T07:58:32.355Z,69.97
2022-10-13T08:01:01.302Z,69.28
2022-10-13T08:03:30.246Z,69.22
2022-10-13T08:06:01.008Z,69.18
2022-10-13T08:08:29.362Z,68.93
2022-10-13T08:11:02.483Z,68.09
2022-10-13T08:13:32.719Z,68.88
2022-10-13T08:16:09.216Z,68.19
2022-10-13T08:18:37.091Z,67.27
2022-10-13T08:23:54.842Z,67.30
2022-10-13T08:26:25.220Z,65.99
2022-10-13T08:31:42.286Z,66.75
2022-10-13T08:34:11.328Z,65.99
2022-10-13T08:36:41.016Z,65.99
2022-10-13T08:39:09.182Z,65.71
2022-10-13T08:41:40.040Z,66.11
2022-10-13T08:44:56.674Z,65.33
2022-10-13T08:47:08.128Z,65.41
2022-10-13T08:49:36.084Z,65.18
2022-10-13T08:52:06.699Z,64.70
2022-10-13T08:54:34.740Z,67.07
2022-10-13T08:57:05.085Z,66.21
2022-10-13T08:59:33.294Z,66.35
2022-10-13T09:02:01.909Z,64.72
2022-10-13T09:04:36.136Z,64.05
2022-10-13T09:07:11.881Z,64.67
2022-10-13T09:09:40.283Z,65.21
2022-10-13T09:12:11.050Z,65.37
2022-10-13T09:14:40.798Z,65.48
2022-10-13T09:17:20.032Z,66.91
2022-10-13T09:19:59.980Z,66.20
2022-10-13T09:22:30.667Z,65.61
2022-10-13T09:25:10.295Z,64.42
2022-10-13T09:27:48.349Z,63.54
2022-10-13T09:30:26.841Z,64.23
2022-10-13T09:33:07.447Z,64.17
2022-10-13T09:35:37.681Z,65.65
2022-10-13T09:38:11.210Z,64.41
2022-10-13T09:40:40.826Z,65.66
2022-10-13T09:43:28.923Z,63.97
2022-10-13T09:45:57.657Z,64.07
2022-10-13T09:48:28.418Z,65.11
2022-10-13T09:50:58.100Z,63.15
2022-10-13T09:53:32.253Z,63.12
2022-10-13T09:56:16.221Z,62.66
2022-10-13T09:58:49.975Z,63.71
2022-10-13T10:01:23.204Z,65.08
2022-10-13T10:03:52.278Z,63.02
2022-10-13T10:06:21.733Z,64.39
2022-10-13T10:09:03.096Z,63.79
2022-10-13T10:11:36.219Z,63.73
2022-10-13T10:14:16.842Z,63.46
2022-10-13T10:16:50.144Z,61.79
2022-10-13T10:19:23.553Z,60.94
2022-10-13T10:22:03.978Z,61.64
2022-10-13T10:24:45.106Z,61.19
2022-10-13T10:29:54.142Z,62.11
2022-10-13T10:32:34.417Z,62.03
2022-10-13T10:35:10.705Z,61.15
2022-10-13T10:37:55.442Z,60.44
2022-10-13T10:40:36.607Z,60.71
2022-10-13T10:43:37.107Z,59.73
2022-10-13T10:46:12.991Z,59.59
2022-10-13T10:48:41.390Z,57.02
2022-10-13T10:51:11.135Z,59.14
2022-10-13T10:53:46.947Z,58.91
2022-10-13T10:56:20.859Z,60.74
2022-10-13T10:58:59.671Z,59.96
2022-10-13T11:01:36.581Z,60.69
2022-10-13T11:04:40.197Z,60.93
2022-10-13T11:07:12.939Z,59.69
2022-10-13T11:10:03.461Z,59.85
2022-10-13T11:13:06.628Z,58.24
2022-10-13T11:15:43.699Z,56.96
2022-10-13T11:18:48.988Z,57.45
2022-10-13T11:21:16.823Z,55.29
2022-10-13T11:23:48.041Z,55.29
2022-10-13T11:26:31.764Z,56.86
2022-10-13T11:29:01.128Z,58.32
2022-10-13T11:31:35.971Z,57.42
2022-10-13T11:34:04.673Z,58.44
2022-10-13T11:36:49.096Z,58.49
2022-10-13T11:39:55.361Z,59.50
2022-10-13T11:42:59.444Z,60.44
2022-10-13T11:45:49.014Z,60.67
2022-10-13T11:48:52.948Z,58.87
2022-10-13T11:51:32.217Z,58.85
2022-10-13T11:54:11.795Z,58.49
2022-10-13T11:56:48.725Z,58.95
2022-10-13T11:59:26.582Z,57.92
2022-10-13T12:01:57.189Z,59.41
2022-10-13T12:04:27.397Z,57.47
2022-10-13T12:06:58.695Z,58.48
2022-10-13T12:09:27.607Z,58.47
2022-10-13T12:12:02.064Z,57.13
2022-10-13T12:17:24.241Z,57.01
2022-10-13T12:19:53.006Z,56.64
2022-10-13T12:22:20.868Z,56.43
2022-10-13T12:24:59.391Z,56.19
2022-10-13T12:27:29.041Z,56.42
2022-10-13T12:29:56.975Z,56.32
2022-10-13T12:32:28.331Z,54.56
2022-10-13T12:34:56.408Z,54.99
2022-10-13T12:37:30.968Z,55.08
2022-10-13T12:40:00.030Z,54.99
2022-10-13T12:42:31.692Z,54.62
2022-10-13T12:45:01.594Z,54.55
2022-10-13T12:47:47.103Z,53.45
2022-10-13T12:50:39.358Z,53.85
2022-10-13T12:53:14.097Z,53.35
2022-10-13T12:55:58.981Z,54.69
2022-10-13T12:58:30.842Z,55.46
2022-10-13T13:01:25.664Z,56.82
2022-10-13T13:03:58.904Z,56.01
2022-10-13T13:06:29.372Z,55.75
2022-10-13T13:09:23.034Z,55.25
2022-10-13T13:12:05.536Z,55.18
2022-10-13T13:14:37.426Z,55.47
2022-10-13T13:17:09.347Z,55.90
2022-10-13T13:19:39.720Z,55.89
2022-10-13T13:22:10.243Z,55.37
2022-10-13T13:24:40.454Z,55.54
2022-10-13T13:27:28.286Z,56.16
2022-10-13T13:29:57.058Z,56.32
2022-10-13T13:32:27.791Z,55.24
2022-10-13T13:34:57.005Z,55.51
2022-10-13T13:37:29.719Z,55.45
2022-10-13T13:39:57.785Z,55.98
2022-10-13T13:42:25.737Z,56.45
2022-10-13T13:44:53.590Z,56.01
2022-10-13T13:47:23.751Z,55.26
2022-10-13T13:49:54.110Z,55.50
2022-10-13T13:52:24.051Z,55.44
2022-10-13T13:54:52.618Z,55.63
2022-10-13T13:57:21.635Z,55.93
2022-10-13T13:59:49.900Z,56.43
2022-10-13T14:02:19.839Z,55.47
2022-10-13T14:04:48.084Z,54.97
2022-10-13T14:07:18.187Z,55.44
2022-10-13T14:09:48.815Z,54.31
2022-10-13T14:12:17.549Z,55.28
2022-10-13T14:14:45.790Z,54.37
2022-10-13T14:17:14.773Z,55.67
2022-10-13T14:19:43.116Z,55.52
2022-10-13T14:22:10.994Z,54.57
2022-10-13T14:24:38.833Z,55.47
2022-10-13T14:27:10.623Z,55.37
2022-10-13T14:29:38.651Z,55.18
2022-10-13T14:32:06.688Z,56.48
2022-10-13T14:34:37.781Z,56.06
2022-10-13T14:37:06.026Z,56.31
2022-10-13T14:39:34.080Z,55.38
2022-10-13T14:42:01.923Z,56.41
2022-10-13T14:44:31.372Z,56.41
2022-10-13T14:46:59.258Z,55.36
2022-10-13T14:49:28.085Z,54.97
2022-10-13T14:51:56.299Z,53.77
2022-10-13T14:54:24.724Z,53.90
2022-10-13T14:56:53.130Z,54.25
2022-10-13T14:59:21.074Z,54.31
2022-10-13T15:01:50.793Z,53.85
2022-10-13T15:04:18.670Z,53.95
2022-10-13T15:06:46.729Z,53.87
2022-10-13T15:09:14.648Z,55.02
2022-10-13T15:11:42.496Z,55.26
2022-10-13T15:14:11.000Z,54.70
2022-10-13T15:16:39.033Z,55.49
2022-10-13T15:19:08.810Z,55.71
2022-10-13T15:21:36.696Z,55.23
2022-10-13T15:24:05.341Z,56.00
2022-10-13T15:26:33.803Z,55.54
2022-10-13T15:29:01.810Z,56.56
2022-10-13T15:31:31.088Z,56.06
2022-10-13T15:33:59.098Z,56.93
2022-10-13T15:36:28.392Z,56.20
2022-10-13T15:38:56.193Z,56.49
2022-10-13T15:41:25.493Z,56.11
2022-10-13T15:43:53.489Z,56.57
2022-10-13T15:46:24.319Z,56.37
2022-10-13T15:48:55.192Z,56.64
2022-10-13T15:51:26.816Z,57.87
2022-10-13T15:53:56.231Z,58.06
2022-10-13T15:56:24.257Z,57.85
2022-10-13T15:58:52.237Z,58.69
2022-10-13T16:01:20.167Z,58.90
2022-10-13T16:03:47.997Z,59.13
2022-10-13T16:06:15.856Z,59.13
2022-10-13T16:08:44.717Z,59.43
2022-10-13T16:11:16.227Z,59.04
2022-10-13T16:13:47.341Z,58.95
2022-10-13T16:16:15.418Z,58.60
2022-10-13T16:18:43.844Z,59.31
2022-10-13T16:21:18.320Z,59.27
2022-10-13T16:23:47.058Z,59.11
2022-10-13T16:26:17.387Z,60.22
2022-10-13T16:28:45.438Z,58.72
2022-10-13T16:31:15.605Z,59.51
2022-10-13T16:33:44.819Z,59.93
2022-10-13T16:36:15.468Z,59.86
2022-10-13T16:38:43.615Z,60.90
2022-10-13T16:41:15.057Z,59.31
2022-10-13T16:43:45.293Z,60.37
2022-10-13T16:46:16.006Z,61.51
2022-10-13T16:48:44.911Z,63.45
2022-10-13T16:51:16.084Z,62.09
2022-10-13T16:53:47.918Z,62.34
2022-10-13T16:56:15.818Z,63.54
2022-10-13T16:58:45.362Z,62.24
2022-10-13T17:01:14.254Z,63.67
2022-10-13T17:03:44.959Z,64.79
2022-10-13T17:06:14.194Z,64.97
2022-10-13T17:08:42.390Z,65.42
2022-10-13T17:11:12.006Z,64.66
2022-10-13T17:13:39.979Z,64.10
2022-10-13T17:16:09.358Z,64.90
2022-10-13T17:18:39.079Z,65.07
2022-10-13T17:21:10.009Z,65.48
2022-10-13T17:23:38.567Z,65.47
2022-10-13T17:26:09.120Z,65.83
2022-10-13T17:28:37.911Z,65.63
2022-10-13T17:31:10.595Z,66.79
2022-10-13T17:33:39.759Z,66.26
2022-10-13T17:36:09.493Z,65.65
2022-10-13T17:38:37.511Z,65.61
2022-10-13T17:41:07.422Z,66.70
2022-10-13T17:43:36.079Z,66.15
2022-10-13T17:46:34.952Z,66.81
2022-10-13T17:49:01.709Z,66.54
2022-10-13T17:51:29.717Z,65.98
2022-10-13T17:53:59.876Z,65.27
2022-10-13T17:56:27.869Z,65.99
2022-10-13T17:58:56.768Z,66.67
2022-10-13T18:01:30.114Z,67.47
2022-10-13T18:04:00.914Z,67.94
2022-10-13T18:06:32.575Z,68.30
2022-10-13T18:09:05.994Z,67.27
2022-10-13T18:11:35.094Z,67.26
2022-10-13T18:14:03.120Z,67.87
2022-10-13T18:16:32.879Z,68.19
2022-10-13T18:19:01.043Z,68.45
2022-10-13T18:21:29.479Z,69.10
2022-10-13T18:23:59.176Z,69.05
2022-10-13T18:26:28.580Z,68.23
2022-10-13T18:28:56.577Z,68.57
2022-10-13T18:31:27.495Z,69.08
2022-10-13T18:34:02.629Z,68.45
2022-10-13T18:36:32.532Z,68.45
2022-10-13T18:39:03.592Z,68.10
2022-10-13T18:41:32.324Z,68.58
2022-10-13T18:44:00.182Z,69.21
2022-10-13T18:46:28.333Z,69.61
2022-10-13T18:48:57.221Z,70.04
2022-10-13T18:51:35.600Z,69.20
2022-10-13T18:54:05.764Z,68.79
2022-10-13T18:56:37.238Z,69.97
2022-10-13T18:59:06.784Z,69.60
2022-10-13T19:01:37.112Z,69.23
2022-10-13T19:04:06.207Z,68.90
2022-10-13T19:06:35.639Z,69.62
2022-10-13T19:09:06.789Z,70.40
2022-10-13T19:11:37.882Z,71.22
2022-10-13T19:14:08.855Z,70.20
2022-10-13T19:16:38.331Z,69.83
2022-10-13T19:19:07.982Z,69.51
2022-10-13T19:21:37.611Z,69.78
2022-10-13T19:24:06.910Z,70.33
2022-10-13T19:26:37.188Z,71.26
2022-10-13T19:29:08.139Z,71.01
2022-10-13T19:31:37.623Z,71.34
2022-10-13T19:34:08.351Z,70.97
2022-10-13T19:36:39.981Z,70.13
2022-10-13T19:39:11.841Z,71.11
2022-10-13T19:41:40.084Z,71.50
2022-10-13T19:44:08.171Z,70.72
2022-10-13T19:46:44.236Z,70.49
2022-10-13T19:49:14.277Z,70.11
2022-10-13T19:51:47.616Z,71.21
2022-10-13T19:54:16.044Z,70.91
2022-10-13T19:56:48.645Z,70.43
2022-10-13T19:59:17.484Z,70.41
2022-10-13T20:01:45.357Z,71.32
2022-10-13T20:04:18.334Z,71.64
2022-10-13T20:06:47.765Z,72.44
2022-10-13T20:09:16.045Z,71.49
2022-10-13T20:11:46.278Z,71.88
2022-10-13T20:14:14.448Z,72.69
2022-10-13T20:16:42.392Z,71.80
2022-10-13T20:19:13.218Z,71.61
2022-10-13T20:21:42.918Z,71.97
2022-10-13T20:24:13.832Z,72.36
2022-10-13T20:26:41.753Z,72.30
2022-10-13T20:29:09.775Z,73.29
2022-10-13T20:31:37.710Z,73.54
2022-10-13T20:34:05.534Z,72.76
2022-10-13T20:36:38.360Z,72.90
2022-10-13T20:39:06.560Z,73.10
2022-10-13T20:41:36.644Z,73.74
2022-10-13T20:44:04.661Z,73.72
2022-10-13T20:46:34.404Z,74.51
2022-10-13T20:49:11.435Z,73.82
2022-10-13T20:51:40.567Z,73.87
2022-10-13T20:54:08.700Z,73.84
2022-10-13T20:56:37.964Z,74.08
2022-10-13T20:59:07.074Z,74.75
2022-10-13T21:01:35.788Z,74.15
2022-10-13T21:04:03.802Z,75.09
2022-10-13T21:06:31.872Z,75.04
2022-10-13T21:09:01.326Z,74.73
2022-10-13T21:11:29.181Z,74.39
2022-10-13T21:13:58.431Z,74.10
2022-10-13T21:16:28.407Z,75.05
2022-10-13T21:18:58.317Z,75.00
2022-10-13T21:21:28.652Z,74.27
2022-10-13T21:23:58.883Z,75.08
2022-10-13T21:26:29.268Z,74.36
2022-10-13T21:28:58.755Z,74.63
2022-10-13T21:31:27.337Z,74.36
2022-10-13T21:33:55.341Z,74.49
2022-10-13T21:36:24.906Z,74.94
2022-10-13T21:38:55.356Z,74.92
2022-10-13T21:41:23.929Z,75.37
2022-10-13T21:43:52.363Z,75.27
2022-10-13T21:46:25.312Z,75.03
2022-10-13T21:48:54.900Z,74.80
2022-10-13T21:51:25.302Z,75.48
2022-10-13T21:53:55.139Z,75.80
2022-10-13T21:56:23.930Z,75.70
2022-10-13T21:58:51.811Z,75.43
2022-10-13T22:01:22.117Z,75.90
2022-10-13T22:03:54.359Z,76.51
2022-10-13T22:06:27.057Z,76.10
2022-10-13T22:08:56.852Z,76.02
2022-10-13T22:11:26.150Z,76.67
2022-10-13T22:13:54.119Z,76.36
2022-10-13T22:16:25.302Z,76.35
2022-10-13T22:18:54.673Z,76.65
2022-10-13T22:21:24.975Z,75.94
2022-10-13T22:23:53.041Z,76.77
2022-10-13T22:26:20.851Z,76.25
2022-10-13T22:28:51.493Z,76.37
2022-10-13T22:31:19.580Z,77.02
2022-10-13T22:33:49.125Z,76.68
2022-10-13T22:36:18.736Z,76.49
2022-10-13T22:38:47.756Z,76.78
2022-10-13T22:41:17.051Z,76.96
2022-10-13T22:43:46.675Z,76.71
2022-10-13T22:46:15.394Z,76.71
2022-10-13T22:48:43.635Z,77.02
2022-10-13T22:51:17.290Z,77.00
2022-10-13T22:53:45.484Z,76.94
2022-10-13T22:56:15.522Z,76.75
2022-10-13T22:58:43.324Z,78.20
2022-10-13T23:01:12.849Z,77.47
2022-10-13T23:03:41.443Z,77.39
2022-10-13T23:06:13.539Z,77.15
2022-10-13T23:08:43.559Z,77.70
2022-10-13T23:11:12.701Z,78.81
2022-10-13T23:13:40.815Z,78.05
2022-10-13T23:16:11.081Z,78.68
2022-10-13T23:18:40.346Z,78.14
2022-10-13T23:21:13.153Z,78.42
2022-10-13T23:23:42.496Z,78.11
2022-10-13T23:26:12.303Z,77.37
2022-10-13T23:28:41.299Z,78.60
2022-10-13T23:31:12.008Z,77.94
2022-10-13T23:33:40.057Z,77.49
2022-10-13T23:36:09.309Z,77.34
2022-10-13T23:38:37.275Z,77.48
2022-10-13T23:41:08.960Z,77.74
2022-10-13T23:43:37.963Z,78.08
2022-10-13T23:46:06.747Z,77.84
2022-10-13T23:48:34.617Z,77.48
2022-10-13T23:51:07.414Z,77.39
2022-10-13T23:53:36.591Z,78.20
2022-10-13T23:56:06.649Z,78.05
2022-10-13T23:58:37.188Z,78.83
